createdAt,value
2022-12-18T00:01:28.289Z,31.98
2022-12-18T00:03:56.679Z,34.30
2022-12-18T00:06:27.623Z,34.05
2022-12-18T00:08:55.882Z,28.60
2022-12-18T00:11:26.654Z,34.20
2022-12-18T00:13:55.699Z,28.63
2022-12-18T00:16:24.945Z,32.50
2022-12-18T00:18:54.255Z,27.92
2022-12-18T00:21:21.797Z,30.67
2022-12-18T00:23:49.971Z,35.80
2022-12-18T00:26:22.782Z,35.53
2022-12-18T00:28:53.751Z,33.85
2022-12-18T00:31:25.224Z,33.50
2022-12-18T00:33:58.544Z,31.15
2022-12-18T00:36:32.282Z,36.20
2022-12-18T00:39:01.000Z,34.70
2022-12-18T00:41:47.296Z,32.33
2022-12-18T00:44:17.452Z,36.22
2022-12-18T00:46:46.356Z,34.05
2022-12-18T00:49:13.070Z,35.15
2022-12-18T00:51:40.225Z,33.33
2022-12-18T00:54:07.317Z,33.67
2022-12-18T00:56:37.375Z,35.95
2022-12-18T00:59:06.848Z,36.28
2022-12-18T01:01:34.000Z,33.90
2022-12-18T01:04:02.567Z,35.17
2022-12-18T01:06:29.854Z,31.13
2022-12-18T01:08:56.828Z,37.65
2022-12-18T01:11:23.873Z,33.83
2022-12-18T01:13:50.696Z,35.83
2022-12-18T01:16:18.765Z,44.95
2022-12-18T01:18:46.286Z,35.45
2022-12-18T01:21:16.253Z,37.90
2022-12-18T01:23:45.899Z,36.92
2022-12-18T01:26:17.065Z,35.92
2022-12-18T01:28:47.594Z,36.25
2022-12-18T01:31:20.874Z,38.03
2022-12-18T01:33:51.300Z,34.95
2022-12-18T01:36:26.856Z,37.70
2022-12-18T01:38:54.533Z,38.65
2022-12-18T01:41:24.581Z,37.20
2022-12-18T01:43:53.153Z,36.95
2022-12-18T01:46:22.515Z,39.08
2022-12-18T01:48:52.410Z,35.88
2022-12-18T01:51:21.517Z,36.08
2022-12-18T01:53:49.268Z,34.03
2022-12-18T01:56:20.872Z,34.88
2022-12-18T01:59:13.268Z,36.50
2022-12-18T02:01:40.234Z,35.50
2022-12-18T02:04:27.641Z,36.72
2022-12-18T02:07:23.847Z,34.80
2022-12-18T02:10:04.938Z,33.80
2022-12-18T02:12:41.046Z,33.40
2022-12-18T02:15:17.807Z,32.80
2022-12-18T02:17:55.056Z,31.70
2022-12-18T02:20:34.801Z,37.30
2022-12-18T02:23:13.684Z,37.80
2022-12-18T02:26:15.715Z,37.22
2022-12-18T02:29:06.107Z,40.58
2022-12-18T02:31:48.685Z,31.77
2022-12-18T02:34:17.401Z,35.38
2022-12-18T02:36:46.840Z,33.35
2022-12-18T02:39:14.943Z,34.25
2022-12-18T02:41:52.600Z,35.30
2022-12-18T02:44:21.077Z,37.92
2022-12-18T02:46:52.423Z,40.40
2022-12-18T02:49:29.577Z,42.08
2022-12-18T02:52:07.066Z,37.17
2022-12-18T02:54:52.901Z,47.70
2022-12-18T02:58:04.478Z,40.33
2022-12-18T03:00:48.561Z,39.15
2022-12-18T03:03:33.833Z,40.42
2022-12-18T03:06:04.000Z,36.88
2022-12-18T03:08:43.535Z,35.50
2022-12-18T03:11:12.661Z,39.50
2022-12-18T03:13:53.429Z,36.58
2022-12-18T03:16:27.001Z,38.67
2022-12-18T03:19:02.045Z,39.20
2022-12-18T03:22:00.540Z,40.65
2022-12-18T03:24:34.283Z,39.70
2022-12-18T03:27:07.449Z,44.08
2022-12-18T03:29:51.871Z,43.13
2022-12-18T03:32:40.539Z,37.13
2022-12-18T03:35:11.482Z,44.55
2022-12-18T03:37:38.540Z,44.55
2022-12-18T03:40:06.796Z,43.50
2022-12-18T03:42:51.255Z,38.78
2022-12-18T03:45:28.501Z,43.33
2022-12-18T03:48:18.554Z,37.65
2022-12-18T03:50:58.086Z,38.13
2022-12-18T03:53:51.883Z,51.80
2022-12-18T03:56:24.940Z,42.85
2022-12-18T03:58:54.813Z,42.00
2022-12-18T04:01:33.221Z,44.30
2022-12-18T04:04:03.234Z,43.33
2022-12-18T04:06:34.859Z,41.80
2022-12-18T04:09:02.296Z,40.17
2022-12-18T04:11:30.980Z,45.28
2022-12-18T04:13:59.065Z,44.40
2022-12-18T04:16:27.495Z,41.33
2022-12-18T04:18:58.541Z,46.78
2022-12-18T04:21:27.597Z,42.50
2022-12-18T04:23:54.559Z,46.17
2022-12-18T04:26:23.193Z,45.35
2022-12-18T04:28:59.953Z,46.03
2022-12-18T04:31:27.001Z,43.45
2022-12-18T04:33:53.833Z,45.83
2022-12-18T04:36:20.942Z,46.08
2022-12-18T04:38:47.764Z,43.78
2022-12-18T04:41:17.092Z,48.33
2022-12-18T04:43:46.750Z,45.47
2022-12-18T04:46:13.600Z,45.03
2022-12-18T04:48:41.410Z,47.78
2022-12-18T04:51:08.537Z,47.10
2022-12-18T04:53:35.509Z,45.53
2022-12-18T04:56:20.814Z,47.92
2022-12-18T04:58:47.723Z,46.92
2022-12-18T05:01:15.965Z,42.53
2022-12-18T05:03:44.016Z,46.22
2022-12-18T05:06:11.791Z,48.80
2022-12-18T05:08:39.757Z,43.50
2022-12-18T05:11:17.510Z,48.35
2022-12-18T05:13:45.884Z,45.70
2022-12-18T05:16:14.961Z,48.70
2022-12-18T05:18:41.827Z,47.80
2022-12-18T05:21:08.513Z,47.83
2022-12-18T05:23:35.871Z,46.75
2022-12-18T05:26:04.751Z,51.33
2022-12-18T05:28:33.710Z,45.40
2022-12-18T05:31:03.285Z,46.88
2022-12-18T05:33:35.064Z,45.75
2022-12-18T05:36:04.260Z,48.67
2022-12-18T05:38:32.414Z,46.95
2022-12-18T05:40:59.448Z,49.17
2022-12-18T05:43:27.944Z,44.45
2022-12-18T05:45:55.535Z,48.33
2022-12-18T05:48:22.620Z,48.25
2022-12-18T05:50:51.365Z,49.65
2022-12-18T05:53:20.704Z,48.17
2022-12-18T05:55:48.073Z,45.25
2022-12-18T05:58:15.530Z,47.97
2022-12-18T06:00:45.238Z,43.60
2022-12-18T06:03:13.127Z,50.95
2022-12-18T06:05:45.048Z,47.42
2022-12-18T06:08:12.558Z,47.55
2022-12-18T06:10:39.693Z,49.78
2022-12-18T06:13:07.518Z,48.90
2022-12-18T06:15:37.280Z,54.13
2022-12-18T06:18:04.118Z,51.78
2022-12-18T06:20:33.618Z,48.55
2022-12-18T06:23:01.083Z,56.63
2022-12-18T06:25:28.077Z,57.75
2022-12-18T06:27:54.982Z,63.53
2022-12-18T06:30:22.086Z,71.20
2022-12-18T06:32:54.705Z,63.60
2022-12-18T06:35:23.503Z,63.35
2022-12-18T06:37:50.240Z,63.80
2022-12-18T06:40:17.485Z,79.10
2022-12-18T06:42:44.169Z,82.50
2022-12-18T06:45:12.435Z,75.53
2022-12-18T06:47:39.218Z,80.05
2022-12-18T06:50:06.660Z,81.70
2022-12-18T06:52:34.638Z,72.25
2022-12-18T06:55:02.317Z,77.80
2022-12-18T06:57:29.272Z,81.70
2022-12-18T06:59:56.118Z,73.28
2022-12-18T07:02:22.896Z,48.17
2022-12-18T07:04:49.767Z,51.53
2022-12-18T07:07:16.685Z,56.55
2022-12-18T07:09:43.536Z,61.15
2022-12-18T07:12:10.341Z,63.00
2022-12-18T07:14:37.215Z,54.50
2022-12-18T07:17:04.242Z,51.20
2022-12-18T07:19:31.315Z,47.58
2022-12-18T07:21:59.616Z,44.95
2022-12-18T07:24:26.328Z,41.83
2022-12-18T07:26:53.105Z,48.90
2022-12-18T07:29:19.861Z,43.55
2022-12-18T07:31:46.650Z,41.88
2022-12-18T07:34:15.660Z,41.08
2022-12-18T07:36:42.801Z,43.88
2022-12-18T07:39:09.605Z,40.65
2022-12-18T07:41:36.378Z,44.28
2022-12-18T07:44:11.756Z,38.25
2022-12-18T07:46:38.516Z,43.08
2022-12-18T07:49:05.500Z,39.00
2022-12-18T07:51:32.256Z,41.47
2022-12-18T07:53:59.167Z,43.55
2022-12-18T07:56:28.669Z,40.70
2022-12-18T07:58:56.514Z,42.92
2022-12-18T08:01:23.616Z,39.70
2022-12-18T08:03:52.189Z,44.00
2022-12-18T08:06:19.549Z,45.95
2022-12-18T08:08:49.450Z,48.58
2022-12-18T08:11:16.957Z,49.00
2022-12-18T08:13:43.780Z,49.70
2022-12-18T08:16:10.811Z,50.70
2022-12-18T08:18:38.762Z,46.03
2022-12-18T08:21:13.800Z,49.80
2022-12-18T08:23:43.337Z,50.78
2022-12-18T08:26:11.729Z,54.80
2022-12-18T08:28:38.735Z,46.42
2022-12-18T08:31:05.933Z,50.72
2022-12-18T08:33:34.103Z,54.35
2022-12-18T08:36:01.927Z,48.22
2022-12-18T08:38:28.982Z,54.90
2022-12-18T08:41:07.510Z,52.63
2022-12-18T08:43:53.352Z,52.58
2022-12-18T08:46:21.497Z,51.58
2022-12-18T08:48:48.874Z,51.50
2022-12-18T08:51:18.272Z,56.72
2022-12-18T08:53:45.788Z,50.08
2022-12-18T08:56:13.553Z,57.20
2022-12-18T08:58:41.548Z,56.25
2022-12-18T09:01:11.031Z,52.65
2022-12-18T09:03:39.066Z,55.03
2022-12-18T09:06:06.984Z,55.30
2022-12-18T09:08:37.972Z,51.60
2022-12-18T09:11:05.098Z,52.58
2022-12-18T09:13:31.989Z,51.67
2022-12-18T09:15:58.775Z,49.63
2022-12-18T09:18:26.157Z,48.25
2022-12-18T09:20:53.989Z,47.03
2022-12-18T09:23:21.697Z,44.88
2022-12-18T09:25:48.932Z,47.15
2022-12-18T09:28:19.296Z,48.28
2022-12-18T09:30:48.672Z,48.75
2022-12-18T09:33:16.403Z,49.53
2022-12-18T09:35:44.802Z,57.00
2022-12-18T09:38:16.923Z,43.67
2022-12-18T09:41:16.759Z,49.85
2022-12-18T09:44:00.275Z,47.55
2022-12-18T09:46:37.729Z,53.05
2022-12-18T09:49:10.840Z,51.50
2022-12-18T09:51:45.579Z,50.17
2022-12-18T09:54:37.012Z,46.95
2022-12-18T09:57:04.721Z,46.90
2022-12-18T09:59:40.847Z,49.67
2022-12-18T10:02:23.610Z,49.50
2022-12-18T10:04:57.471Z,49.67
2022-12-18T10:07:44.634Z,51.75
2022-12-18T10:10:27.369Z,54.25
2022-12-18T10:13:10.966Z,57.78
2022-12-18T10:18:22.053Z,57.70
2022-12-18T10:20:57.511Z,49.45
2022-12-18T10:23:50.470Z,53.75
2022-12-18T10:27:27.917Z,56.75
2022-12-18T10:30:17.258Z,50.78
2022-12-18T10:32:44.396Z,52.17
2022-12-18T10:35:23.917Z,47.03
2022-12-18T10:38:05.123Z,46.92
2022-12-18T10:40:32.269Z,46.40
2022-12-18T10:43:06.915Z,46.33
2022-12-18T10:45:33.823Z,47.05
2022-12-18T10:48:00.782Z,49.03
2022-12-18T10:53:28.810Z,53.05
2022-12-18T10:56:01.883Z,48.67
2022-12-18T10:58:35.181Z,49.30
2022-12-18T11:01:22.252Z,50.90
2022-12-18T11:03:52.153Z,53.25
2022-12-18T11:06:25.685Z,54.72
2022-12-18T11:09:26.140Z,55.47
2022-12-18T11:11:58.622Z,52.53
2022-12-18T11:14:33.145Z,47.97
2022-12-18T11:20:05.041Z,52.30
2022-12-18T11:25:35.024Z,55.35
2022-12-18T11:28:05.547Z,58.83
2022-12-18T11:30:34.730Z,53.28
2022-12-18T11:33:17.636Z,53.40
2022-12-18T11:35:50.639Z,53.05
2022-12-18T11:38:26.653Z,48.40
2022-12-18T11:40:59.759Z,49.60
2022-12-18T11:43:50.587Z,41.53
2022-12-18T11:46:27.830Z,42.63
2022-12-18T11:49:08.694Z,45.95
2022-12-18T11:51:47.134Z,46.40
2022-12-18T11:54:17.946Z,47.05
2022-12-18T11:57:11.443Z,44.45
2022-12-18T12:00:13.620Z,46.25
2022-12-18T12:02:49.330Z,44.90
2022-12-18T12:06:04.478Z,47.28
2022-12-18T12:08:52.461Z,46.58
2022-12-18T12:11:30.908Z,48.88
2022-12-18T12:13:57.631Z,45.28
2022-12-18T12:16:33.751Z,44.25
2022-12-18T12:19:11.542Z,47.58
2022-12-18T12:21:43.047Z,46.55
2022-12-18T12:24:29.941Z,47.65
2022-12-18T12:27:05.374Z,48.40
2022-12-18T12:30:19.685Z,44.65
2022-12-18T12:32:49.241Z,48.15
2022-12-18T12:35:28.735Z,42.70
2022-12-18T12:38:05.142Z,42.47
2022-12-18T12:40:56.957Z,48.40
2022-12-18T12:43:50.512Z,41.60
2022-12-18T12:46:22.503Z,42.13
2022-12-18T12:48:53.633Z,43.28
2022-12-18T12:51:23.467Z,45.85
2022-12-18T12:53:51.068Z,44.53
2022-12-18T12:56:20.757Z,46.20
2022-12-18T12:59:14.668Z,45.95
2022-12-18T13:01:59.938Z,41.97
2022-12-18T13:04:44.929Z,42.35
2022-12-18T13:07:32.903Z,42.10
2022-12-18T13:10:19.055Z,50.15
2022-12-18T13:16:08.391Z,40.15
2022-12-18T13:18:36.196Z,36.25
2022-12-18T13:21:24.404Z,42.78
2022-12-18T13:23:51.733Z,44.05
2022-12-18T13:26:21.942Z,43.60
2022-12-18T13:28:54.966Z,44.30
2022-12-18T13:31:40.925Z,44.08
2022-12-18T13:37:32.867Z,37.78
2022-12-18T13:40:00.596Z,40.92
2022-12-18T13:42:59.316Z,42.78
2022-12-18T13:45:46.858Z,41.92
2022-12-18T13:48:25.111Z,45.83
2022-12-18T13:51:06.189Z,45.72
2022-12-18T13:53:54.530Z,49.47
2022-12-18T13:56:27.705Z,49.08
2022-12-18T13:59:18.804Z,52.13
2022-12-18T14:01:57.668Z,46.67
2022-12-18T14:04:34.478Z,44.30
2022-12-18T14:07:13.732Z,43.28
2022-12-18T14:09:46.312Z,47.00
2022-12-18T14:12:43.719Z,47.70
2022-12-18T14:15:40.146Z,39.97
2022-12-18T14:18:27.851Z,41.47
2022-12-18T14:20:58.490Z,41.38
2022-12-18T14:23:34.471Z,47.38
2022-12-18T14:26:05.970Z,48.47
2022-12-18T14:28:33.188Z,43.22
2022-12-18T14:31:00.117Z,45.67
2022-12-18T14:33:28.878Z,42.13
2022-12-18T14:35:55.688Z,46.00
2022-12-18T14:38:26.010Z,49.00
2022-12-18T14:41:01.592Z,46.67
2022-12-18T14:43:37.993Z,50.50
2022-12-18T14:46:30.543Z,61.30
2022-12-18T14:48:58.002Z,59.38
2022-12-18T14:51:29.706Z,64.22
2022-12-18T14:53:59.240Z,71.82
2022-12-18T14:56:35.358Z,71.72
2022-12-18T14:59:13.601Z,67.93
2022-12-18T15:01:46.538Z,73.82
2022-12-18T15:04:27.953Z,73.25
2022-12-18T15:07:20.163Z,66.38
2022-12-18T15:10:16.748Z,70.70
2022-12-18T15:12:47.177Z,68.68
2022-12-18T15:15:38.779Z,69.57
2022-12-18T15:18:05.725Z,72.90
2022-12-18T15:20:35.248Z,68.95
2022-12-18T15:23:05.375Z,73.60
2022-12-18T15:25:39.629Z,81.28
2022-12-18T15:28:23.410Z,67.07
2022-12-18T15:31:05.365Z,73.10
2022-12-18T15:33:35.558Z,65.10
2022-12-18T15:36:05.306Z,66.00
2022-12-18T15:38:33.045Z,67.50
2022-12-18T15:41:00.636Z,72.32
2022-12-18T15:43:37.956Z,74.57
2022-12-18T15:46:15.224Z,74.13
2022-12-18T15:48:44.779Z,66.68
2022-12-18T15:51:33.493Z,75.55
2022-12-18T15:54:04.777Z,73.90
2022-12-18T15:56:50.548Z,67.30
2022-12-18T15:59:21.296Z,72.03
2022-12-18T16:01:50.398Z,75.93
2022-12-18T16:04:22.301Z,66.13
2022-12-18T16:09:40.057Z,65.10
2022-12-18T16:12:12.444Z,68.90
2022-12-18T16:14:39.324Z,65.72
2022-12-18T16:17:12.879Z,71.70
2022-12-18T16:19:39.729Z,66.80
2022-12-18T16:22:07.119Z,69.88
2022-12-18T16:24:37.327Z,64.53
2022-12-18T16:27:05.464Z,66.13
2022-12-18T16:29:36.021Z,66.22
2022-12-18T16:32:03.204Z,70.38
2022-12-18T16:34:36.160Z,73.00
2022-12-18T16:37:06.660Z,67.00
2022-12-18T16:39:39.035Z,71.25
2022-12-18T16:42:11.109Z,74.35
2022-12-18T16:44:41.312Z,73.70
2022-12-18T16:47:08.295Z,76.78
2022-12-18T16:49:39.212Z,71.70
2022-12-18T16:52:10.123Z,69.78
2022-12-18T16:54:37.372Z,71.38
2022-12-18T16:57:05.614Z,70.22
2022-12-18T16:59:32.535Z,66.78
2022-12-18T17:02:02.199Z,72.00
2022-12-18T17:04:29.109Z,67.50
2022-12-18T17:06:55.885Z,73.72
2022-12-18T17:09:25.517Z,74.38
2022-12-18T17:11:55.345Z,76.90
2022-12-18T17:14:28.691Z,77.45
2022-12-18T17:17:20.230Z,72.07
2022-12-18T17:19:43.846Z,73.80
2022-12-18T17:22:10.630Z,73.10
2022-12-18T17:24:37.683Z,74.70
2022-12-18T17:27:05.188Z,72.78
2022-12-18T17:29:32.118Z,69.53
2022-12-18T17:32:00.559Z,76.07
2022-12-18T17:34:28.133Z,75.80
2022-12-18T17:36:55.239Z,77.25
2022-12-18T17:39:23.788Z,77.18
2022-12-18T17:41:52.854Z,79.45
2022-12-18T17:44:20.286Z,77.45
2022-12-18T17:46:47.414Z,76.70
2022-12-18T17:49:14.811Z,72.35
2022-12-18T17:51:45.089Z,75.18
2022-12-18T17:54:12.187Z,73.05
2022-12-18T17:56:39.530Z,72.07
2022-12-18T17:59:07.202Z,73.18
2022-12-18T18:01:34.353Z,71.28
2022-12-18T18:04:09.907Z,69.03
2022-12-18T18:06:41.079Z,66.30
2022-12-18T18:09:16.817Z,67.68
2022-12-18T18:12:03.380Z,73.05
2022-12-18T18:14:31.455Z,74.90
2022-12-18T18:17:02.853Z,71.45
2022-12-18T18:19:31.780Z,74.47
2022-12-18T18:21:59.544Z,71.95
2022-12-18T18:24:26.431Z,67.95
2022-12-18T18:26:54.219Z,70.25
2022-12-18T18:29:27.018Z,73.40
2022-12-18T18:31:54.818Z,69.20
2022-12-18T18:34:26.425Z,74.30
2022-12-18T18:36:53.233Z,64.63
2022-12-18T18:39:20.369Z,65.18
2022-12-18T18:41:48.008Z,73.03
2022-12-18T18:44:16.255Z,73.50
2022-12-18T18:46:43.166Z,67.88
2022-12-18T18:49:10.800Z,64.40
2022-12-18T18:51:37.538Z,81.05
2022-12-18T18:54:04.736Z,70.47
2022-12-18T18:59:19.685Z,70.85
2022-12-18T19:01:52.801Z,63.65
2022-12-18T19:04:20.114Z,74.90
2022-12-18T19:06:47.873Z,68.13
2022-12-18T19:09:18.197Z,73.13
2022-12-18T19:12:03.770Z,70.72
2022-12-18T19:14:30.736Z,68.57
2022-12-18T19:16:57.509Z,67.80
2022-12-18T19:19:25.323Z,70.18
2022-12-18T19:21:52.389Z,68.90
2022-12-18T19:24:20.064Z,65.75
2022-12-18T19:26:49.256Z,74.75
2022-12-18T19:29:16.058Z,66.35
2022-12-18T19:31:43.031Z,68.07
2022-12-18T19:34:10.188Z,74.88
2022-12-18T19:36:39.127Z,74.93
2022-12-18T19:39:15.526Z,72.07
2022-12-18T19:41:43.231Z,73.22
2022-12-18T19:44:12.648Z,66.90
2022-12-18T19:46:42.064Z,74.43
2022-12-18T19:49:17.366Z,71.50
2022-12-18T19:51:44.747Z,67.55
2022-12-18T19:54:16.394Z,65.35
2022-12-18T19:56:43.615Z,68.40
2022-12-18T19:59:10.510Z,64.88
2022-12-18T20:01:37.522Z,73.45
2022-12-18T20:04:04.898Z,76.95
2022-12-18T20:06:36.329Z,71.20
2022-12-18T20:09:06.365Z,75.05
2022-12-18T20:11:41.190Z,71.78
2022-12-18T20:14:10.263Z,73.10
2022-12-18T20:16:37.232Z,80.68
2022-12-18T20:19:04.946Z,74.32
2022-12-18T20:21:31.733Z,77.57
2022-12-18T20:24:00.041Z,76.38
2022-12-18T20:26:27.647Z,74.13
2022-12-18T20:28:55.758Z,77.50
2022-12-18T20:31:23.189Z,79.53
2022-12-18T20:33:52.190Z,78.85
2022-12-18T20:36:23.417Z,85.65
2022-12-18T20:38:52.987Z,81.30
2022-12-18T20:41:24.457Z,80.13
2022-12-18T20:43:51.395Z,82.50
2022-12-18T20:46:20.306Z,80.93
2022-12-18T20:48:49.187Z,78.45
2022-12-18T20:51:19.029Z,83.57
2022-12-18T20:53:46.927Z,81.80
2022-12-18T20:56:21.120Z,83.22
2022-12-18T20:58:55.116Z,81.82
2022-12-18T21:03:50.084Z,79.30
2022-12-18T21:06:18.847Z,88.57
2022-12-18T21:08:46.016Z,86.45
2022-12-18T21:11:38.593Z,89.57
2022-12-18T21:14:09.273Z,87.13
2022-12-18T21:16:36.035Z,87.65
2022-12-18T21:19:03.792Z,86.43
2022-12-18T21:21:30.542Z,91.13
2022-12-18T21:24:05.533Z,94.40
2022-12-18T21:26:32.343Z,88.45
2022-12-18T21:29:01.748Z,92.55
2022-12-18T21:31:31.628Z,92.50
2022-12-18T21:34:02.337Z,85.65
2022-12-18T21:36:29.801Z,89.80
2022-12-18T21:38:57.642Z,101.28
2022-12-18T21:41:44.101Z,85.80
2022-12-18T21:44:17.541Z,99.60
2022-12-18T21:46:51.501Z,90.90
2022-12-18T21:49:22.707Z,87.45
2022-12-18T21:51:52.399Z,89.68
2022-12-18T21:54:20.081Z,93.75
2022-12-18T21:56:51.989Z,96.13
2022-12-18T21:59:27.725Z,93.63
2022-12-18T22:01:56.887Z,95.15
2022-12-18T22:04:25.100Z,97.53
2022-12-18T22:06:52.701Z,93.38
2022-12-18T22:09:22.164Z,99.57
2022-12-18T22:11:50.017Z,92.75
2022-12-18T22:14:17.513Z,93.65
2022-12-18T22:16:44.957Z,93.25
2022-12-18T22:19:12.775Z,99.45
2022-12-18T22:21:45.861Z,85.35
2022-12-18T22:24:19.066Z,93.20
2022-12-18T22:26:46.684Z,100.57
2022-12-18T22:29:41.018Z,97.35
2022-12-18T22:32:10.458Z,101.95
2022-12-18T22:34:39.396Z,91.68
2022-12-18T22:37:06.452Z,94.00
2022-12-18T22:39:36.206Z,106.85
2022-12-18T22:42:03.522Z,99.93
2022-12-18T22:44:31.446Z,106.65
2022-12-18T22:47:06.061Z,91.95
2022-12-18T22:49:34.912Z,97.35
2022-12-18T22:52:02.332Z,106.00
2022-12-18T22:54:29.059Z,97.00
2022-12-18T22:56:55.765Z,95.03
2022-12-18T22:59:23.632Z,94.80
2022-12-18T23:01:52.976Z,95.43
2022-12-18T23:04:32.003Z,97.55
2022-12-18T23:07:04.263Z,96.32
2022-12-18T23:09:31.081Z,96.00
2022-12-18T23:11:59.332Z,98.32
2022-12-18T23:14:26.088Z,97.85
2022-12-18T23:16:53.205Z,95.55
2022-12-18T23:19:20.531Z,90.47
2022-12-18T23:21:47.927Z,97.63
2022-12-18T23:24:15.337Z,91.53
2022-12-18T23:26:42.764Z,92.45
2022-12-18T23:29:09.485Z,87.63
2022-12-18T23:31:38.805Z,94.07
2022-12-18T23:34:07.698Z,98.43
2022-12-18T23:36:45.755Z,89.35
2022-12-18T23:39:20.476Z,87.93
2022-12-18T23:42:00.454Z,103.30
2022-12-18T23:44:27.591Z,104.13
2022-12-18T23:46:55.669Z,99.68
2022-12-18T23:49:22.702Z,98.35
2022-12-18T23:51:49.584Z,95.50
2022-12-18T23:54:16.359Z,97.57
2022-12-18T23:56:43.222Z,98.78
2022-12-18T23:59:10.166Z,99.80
